Time;durP1;ratioP1;P1;durP2;ratioP2;P2;SDS_P1;SDS_P2;PMS_P1;PMS_P2;Temp;Humidity;BMP_temperature;BMP_pressure;BME280_temperature;BME280_humidity;BME280_pressure;Samples;Min_cycle;Max_cycle;Signal;HPM_P1;HPM_P2
2022/09/19 00:01:12;;;;;;;3.50;0.68;;;19.40;69.60;;;;;;5053517;28;20047;-61
2022/09/19 00:03:40;;;;;;;3.58;0.60;;;19.40;69.60;;;;;;5072615;28;20404;-61
2022/09/19 00:06:06;;;;;;;4.87;0.63;;;19.40;69.50;;;;;;5072730;28;20044;-61
2022/09/19 00:08:31;;;;;;;4.70;0.70;;;19.40;69.50;;;;;;5072015;28;20051;-61
2022/09/19 00:11:00;;;;;;;2.15;0.70;;;19.40;69.60;;;;;;5072755;28;20045;-61
2022/09/19 00:13:25;;;;;;;2.90;0.65;;;19.40;69.50;;;;;;5072282;28;20048;-61
2022/09/19 00:15:51;;;;;;;4.35;0.68;;;19.40;69.50;;;;;;5071458;28;20438;-61
2022/09/19 00:18:16;;;;;;;3.22;0.60;;;19.40;69.50;;;;;;5072011;28;20062;-61
2022/09/19 00:20:47;;;;;;;4.38;0.95;;;19.40;69.50;;;;;;5054036;28;20037;-61
2022/09/19 00:26:12;;;;;;;4.35;0.65;;;19.40;69.50;;;;;;5068529;28;20048;-61
2022/09/19 00:28:38;;;;;;;3.70;0.57;;;19.40;70.10;;;;;;5072213;28;20101;-61
2022/09/19 00:31:04;;;;;;;4.28;0.50;;;19.40;69.50;;;;;;5071365;28;20147;-61
2022/09/19 00:33:33;;;;;;;2.20;0.50;;;19.40;69.60;;;;;;5072725;28;20044;-60
2022/09/19 00:36:03;;;;;;;2.95;0.65;;;19.30;69.40;;;;;;5072379;28;20091;-61
2022/09/19 00:38:29;;;;;;;2.70;0.70;;;19.30;69.40;;;;;;5071067;28;20098;-61
2022/09/19 00:40:55;;;;;;;3.72;0.60;;;19.30;69.40;;;;;;5072578;28;20086;-61
2022/09/19 00:43:21;;;;;;;2.58;0.50;;;19.40;69.40;;;;;;5071080;28;20126;-61
2022/09/19 00:45:47;;;;;;;3.92;0.75;;;19.30;69.40;;;;;;5072047;28;20040;-61
2022/09/19 00:48:16;;;;;;;3.45;0.88;;;19.30;69.40;;;;;;5072256;28;20128;-61
2022/09/19 00:50:44;;;;;;;4.05;0.60;;;19.30;69.40;;;;;;5036788;28;20044;-61
2022/09/19 00:53:15;;;;;;;2.72;0.60;;;19.30;69.40;;;;;;5037678;28;20044;-61
2022/09/19 00:55:40;;;;;;;3.88;0.85;;;19.30;69.40;;;;;;5072184;28;20047;-61
2022/09/19 00:58:24;;;;;;;4.35;0.57;;;19.30;69.50;;;;;;5071237;28;20052;-61
2022/09/19 01:00:50;;;;;;;3.03;0.60;;;19.30;69.50;;;;;;5071853;28;20043;-61
2022/09/19 01:03:15;;;;;;;3.25;0.50;;;19.30;69.40;;;;;;5053812;28;20459;-61
2022/09/19 01:06:13;;;;;;;3.72;0.60;;;19.30;69.40;;;;;;5071249;28;20051;-61
2022/09/19 01:08:49;;;;;;;2.78;0.73;;;19.30;69.40;;;;;;5072269;28;20219;-61
2022/09/19 01:11:30;;;;;;;2.30;0.70;;;19.30;69.40;;;;;;5054371;28;20048;-61
2022/09/19 01:14:25;;;;;;;4.68;0.70;;;19.30;69.40;;;;;;5054049;28;20131;-61
2022/09/19 01:16:54;;;;;;;2.60;0.43;;;19.30;69.40;;;;;;5057134;28;20053;-61
2022/09/19 01:19:57;;;;;;;3.25;0.90;;;19.20;69.30;;;;;;5053264;28;20041;-61
2022/09/19 01:22:43;;;;;;;2.90;0.65;;;19.30;69.30;;;;;;5071926;28;20095;-60
2022/09/19 01:25:26;;;;;;;3.45;0.50;;;19.30;69.30;;;;;;5053724;28;20432;-61
2022/09/19 01:28:10;;;;;;;4.78;0.70;;;19.30;69.30;;;;;;5037548;28;20044;-61
2022/09/19 01:30:39;;;;;;;3.30;0.60;;;19.20;69.30;;;;;;5055454;28;20075;-60
2022/09/19 01:33:06;;;;;;;;;;;19.20;69.30;;;;;;5037366;28;20056;-60
2022/09/19 01:35:33;;;;;;;2.80;0.50;;;19.20;69.20;;;;;;5054099;28;19920;-60
2022/09/19 01:38:03;;;;;;;4.78;0.60;;;19.20;69.40;;;;;;5037748;28;20052;-61
2022/09/19 01:40:29;;;;;;;4.43;0.68;;;19.20;69.30;;;;;;5053642;28;20037;-61
2022/09/19 01:42:56;;;;;;;2.70;0.50;;;19.20;69.40;;;;;;5053847;28;20040;-61
2022/09/19 01:45:38;;;;;;;1.75;0.40;;;19.20;69.40;;;;;;5071340;28;20751;-61
2022/09/19 01:48:20;;;;;;;2.72;0.70;;;19.30;69.50;;;;;;5037370;28;20373;-60
2022/09/19 01:51:13;;;;;;;1.55;0.40;;;19.30;69.60;;;;;;5038297;28;20068;-61
2022/09/19 01:54:04;;;;;;;2.85;0.50;;;19.20;69.50;;;;;;5071259;28;20101;-61
2022/09/19 01:56:48;;;;;;;2.08;0.50;;;19.30;69.60;;;;;;5037628;28;20047;-60
2022/09/19 01:59:57;;;;;;;3.15;0.90;;;19.30;69.60;;;;;;5070971;28;20515;-60
2022/09/19 02:02:26;;;;;;;3.42;0.85;;;19.30;69.60;;;;;;5033208;28;20504;-60
2022/09/19 02:05:15;;;;;;;4.28;0.65;;;19.30;69.70;;;;;;5054704;28;20102;-60
2022/09/19 02:07:43;;;;;;;3.00;0.68;;;19.30;69.70;;;;;;5020988;28;20091;-61
2022/09/19 02:10:11;;;;;;;;;;;19.30;69.70;;;;;;5055238;28;20045;-60
2022/09/19 02:12:38;;;;;;;2.15;0.50;;;19.30;69.80;;;;;;5054730;28;20427;-61
2022/09/19 02:15:05;;;;;;;2.30;0.50;;;19.30;69.80;;;;;;5019588;28;20880;-61
2022/09/19 02:17:35;;;;;;;2.30;0.50;;;19.30;69.80;;;;;;5054762;28;20465;-60
2022/09/19 02:20:07;;;;;;;2.87;0.50;;;19.30;69.90;;;;;;5021013;28;20032;-60
2022/09/19 02:22:37;;;;;;;4.53;0.55;;;19.30;69.90;;;;;;5053869;28;20382;-60
2022/09/19 02:25:08;;;;;;;2.83;0.40;;;19.40;70.00;;;;;;5021194;28;20067;-60
2022/09/19 02:28:07;;;;;;;3.10;0.50;;;19.40;70.00;;;;;;5020544;28;20056;-60
2022/09/19 02:30:33;;;;;;;2.70;0.40;;;19.40;70.00;;;;;;5034790;28;20416;-61
2022/09/19 02:32:59;;;;;;;3.08;0.63;;;19.40;70.00;;;;;;5036876;28;20049;-60
2022/09/19 02:35:34;;;;;;;1.95;0.45;;;19.40;70.00;;;;;;5020271;28;20079;-60
2022/09/19 02:38:24;;;;;;;2.65;0.57;;;19.40;70.00;;;;;;5020675;28;20037;-60
2022/09/19 02:41:04;;;;;;;2.25;0.40;;;19.40;70.10;;;;;;5053337;28;20567;-60
2022/09/19 02:43:51;;;;;;;2.92;0.52;;;19.40;70.10;;;;;;5053297;28;20045;-61
2022/09/19 02:46:23;;;;;;;1.58;0.35;;;19.50;70.20;;;;;;5035646;28;20472;-61
2022/09/19 02:48:58;;;;;;;4.90;0.63;;;19.50;70.10;;;;;;5037686;28;20048;-60
2022/09/19 02:51:30;;;;;;;1.65;0.25;;;19.50;70.10;;;;;;5019420;28;20049;-61
2022/09/19 02:54:03;;;;;;;2.85;0.63;;;19.50;70.20;;;;;;5036510;28;20049;-60
2022/09/19 02:56:30;;;;;;;1.83;0.40;;;19.50;70.20;;;;;;5036041;28;20401;-60
2022/09/19 02:59:09;;;;;;;2.95;0.60;;;19.50;70.20;;;;;;5019469;28;20067;-61
2022/09/19 03:01:41;;;;;;;1.10;0.50;;;19.50;70.20;;;;;;5054070;28;20075;-61
2022/09/19 03:04:12;;;;;;;2.80;0.50;;;19.50;70.10;;;;;;5019967;28;20117;-61
2022/09/19 03:06:44;;;;;;;2.65;0.40;;;19.50;70.10;;;;;;5037394;28;20115;-61
2022/09/19 03:09:11;;;;;;;1.38;0.43;;;19.60;70.20;;;;;;5019334;28;20802;-60
2022/09/19 03:11:38;;;;;;;3.20;0.40;;;19.50;70.20;;;;;;5035603;28;20075;-60
2022/09/19 03:14:05;;;;;;;1.92;0.50;;;19.50;70.20;;;;;;5035951;28;20496;-60
2022/09/19 03:16:34;;;;;;;2.85;0.55;;;19.50;70.20;;;;;;5036169;28;20044;-60
2022/09/19 03:19:00;;;;;;;2.88;0.50;;;19.50;70.20;;;;;;5035370;28;20049;-60
2022/09/19 03:21:27;;;;;;;2.78;0.50;;;19.60;70.30;;;;;;5018902;28;20045;-60
2022/09/19 03:23:53;;;;;;;2.47;0.50;;;19.50;70.20;;;;;;5019813;28;20045;-60
2022/09/19 03:26:25;;;;;;;3.33;0.57;;;19.50;70.20;;;;;;5052774;28;20037;-60
2022/09/19 03:28:51;;;;;;;2.00;0.47;;;19.50;70.20;;;;;;5053345;28;20517;-61
2022/09/19 03:31:17;;;;;;;3.35;0.60;;;19.60;70.30;;;;;;5052710;28;20548;-60
2022/09/19 03:33:43;;;;;;;3.92;0.50;;;19.50;70.30;;;;;;5052297;28;20110;-61
2022/09/19 03:36:08;;;;;;;2.75;0.60;;;19.50;70.20;;;;;;5052933;28;20136;-61
2022/09/19 03:38:44;;;;;;;3.83;0.60;;;19.50;70.30;;;;;;5053351;28;20473;-61
2022/09/19 03:41:18;;;;;;;1.70;0.50;;;19.50;70.30;;;;;;5052421;28;20400;-61
2022/09/19 03:43:43;;;;;;;3.35;0.43;;;19.50;70.30;;;;;;5053500;28;20083;-61
2022/09/19 03:46:13;;;;;;;2.08;0.63;;;19.50;70.30;;;;;;5052125;28;20084;-61
2022/09/19 03:48:40;;;;;;;2.50;0.40;;;19.50;70.30;;;;;;5053311;28;20045;-61
2022/09/19 03:51:06;;;;;;;2.38;0.70;;;19.50;70.30;;;;;;5053229;28;20132;-61
2022/09/19 03:53:31;;;;;;;2.92;0.65;;;19.50;70.30;;;;;;5052327;28;20155;-61
2022/09/19 03:55:57;;;;;;;3.65;0.43;;;19.50;70.30;;;;;;5053150;28;20045;-61
2022/09/19 03:58:26;;;;;;;3.03;0.47;;;19.50;70.40;;;;;;5052524;28;20049;-61
2022/09/19 04:00:51;;;;;;;;;;;19.50;70.40;;;;;;5054516;28;20068;-61
2022/09/19 04:03:18;;;;;;;2.55;0.40;;;19.50;70.20;;;;;;5058968;28;19967;-61
2022/09/19 04:05:44;;;;;;;2.47;0.40;;;19.50;70.30;;;;;;5071970;28;20040;-61
2022/09/19 04:08:10;;;;;;;3.90;0.57;;;19.50;70.30;;;;;;5071651;28;20051;-61
2022/09/19 04:10:36;;;;;;;3.03;0.55;;;19.50;70.40;;;;;;5072815;28;20515;-61
2022/09/19 04:13:02;;;;;;;3.00;0.50;;;19.50;70.40;;;;;;5071623;28;20086;-61
2022/09/19 04:15:27;;;;;;;3.30;0.63;;;19.50;70.40;;;;;;5071697;28;20033;-61
2022/09/19 04:17:53;;;;;;;2.85;0.60;;;19.50;70.50;;;;;;5072467;28;20048;-61
2022/09/19 04:20:18;;;;;;;2.10;0.60;;;19.50;70.50;;;;;;5071697;28;20170;-61
2022/09/19 04:22:44;;;;;;;2.38;0.40;;;19.50;70.50;;;;;;5072037;28;20173;-61
2022/09/19 04:25:10;;;;;;;3.05;0.60;;;19.50;70.50;;;;;;5071774;28;20115;-61
2022/09/19 04:27:37;;;;;;;2.80;0.50;;;19.50;70.50;;;;;;5072623;28;20048;-61
2022/09/19 04:30:06;;;;;;;3.13;0.45;;;19.50;70.50;;;;;;5071293;28;20400;-61
2022/09/19 04:32:34;;;;;;;3.08;0.95;;;19.50;70.50;;;;;;5072165;28;20060;-60
2022/09/19 04:35:00;;;;;;;;;;;19.50;70.50;;;;;;5072839;28;20407;-61
2022/09/19 04:37:29;;;;;;;3.50;0.63;;;19.50;70.40;;;;;;5071408;28;20023;-60
2022/09/19 04:39:58;;;;;;;3.45;0.70;;;19.50;70.50;;;;;;5054097;28;20045;-61
2022/09/19 04:42:27;;;;;;;3.67;0.60;;;19.50;70.50;;;;;;5072144;28;20037;-61
2022/09/19 04:44:53;;;;;;;1.70;0.43;;;19.50;71.20;;;;;;5071810;28;20037;-61
2022/09/19 04:47:19;;;;;;;3.40;0.50;;;19.50;70.60;;;;;;5072172;28;20386;-61
2022/09/19 04:49:44;;;;;;;3.92;0.40;;;19.50;70.60;;;;;;5071744;28;20536;-61
2022/09/19 04:52:12;;;;;;;2.55;0.50;;;19.50;70.60;;;;;;5071919;28;20048;-61
2022/09/19 04:54:37;;;;;;;2.93;0.43;;;19.50;70.60;;;;;;5072417;28;20086;-61
2022/09/19 04:57:10;;;;;;;3.55;0.70;;;19.50;70.60;;;;;;5071527;28;20048;-61
2022/09/19 04:59:35;;;;;;;1.92;0.50;;;19.50;70.60;;;;;;5071837;28;20066;-61
2022/09/19 05:02:01;;;;;;;1.38;0.30;;;19.50;70.60;;;;;;5071951;28;20067;-61
2022/09/19 05:04:27;;;;;;;2.72;0.60;;;19.50;70.60;;;;;;5071354;28;20131;-61
2022/09/19 05:06:53;;;;;;;2.95;0.50;;;19.50;70.60;;;;;;5072008;28;20051;-61
2022/09/19 05:09:22;;;;;;;2.78;0.50;;;19.50;70.60;;;;;;5071804;28;20040;-61
2022/09/19 05:11:48;;;;;;;2.83;0.60;;;19.60;70.70;;;;;;5071021;28;20480;-61
2022/09/19 05:14:14;;;;;;;3.08;0.60;;;19.50;70.60;;;;;;5071439;28;20052;-61
2022/09/19 05:16:43;;;;;;;2.78;0.40;;;19.50;70.60;;;;;;5072116;28;20041;-61
2022/09/19 05:19:08;;;;;;;1.40;0.38;;;19.50;70.60;;;;;;5071053;28;20059;-61
2022/09/19 05:21:40;;;;;;;3.55;0.60;;;19.50;70.60;;;;;;5054053;28;20041;-61
2022/09/19 05:24:06;;;;;;;2.90;0.55;;;19.60;70.60;;;;;;5071919;28;20047;-60
2022/09/19 05:26:31;;;;;;;3.88;0.50;;;19.60;70.60;;;;;;5070921;28;20041;-60
2022/09/19 05:28:57;;;;;;;1.42;0.55;;;19.60;71.20;;;;;;5071950;28;20068;-60
2022/09/19 05:31:22;;;;;;;3.58;0.57;;;19.60;70.60;;;;;;5071213;28;20049;-60
2022/09/19 05:33:48;;;;;;;2.85;0.60;;;19.60;70.60;;;;;;5071103;28;20399;-61
2022/09/19 05:36:14;;;;;;;2.40;0.57;;;19.60;70.50;;;;;;5071292;28;20400;-61
2022/09/19 05:38:39;;;;;;;4.38;1.10;;;19.60;70.50;;;;;;5075773;28;20504;-63
2022/09/19 05:41:05;;;;;;;3.08;0.45;;;19.60;70.50;;;;;;5075025;28;20048;-60
2022/09/19 05:43:31;;;;;;;3.95;0.60;;;19.70;70.60;;;;;;5075600;28;20123;-60
2022/09/19 05:45:57;;;;;;;3.53;0.60;;;19.70;70.60;;;;;;5074630;28;20048;-60
2022/09/19 05:48:23;;;;;;;2.97;0.57;;;19.70;70.60;;;;;;5075025;28;20044;-60
2022/09/19 05:50:49;;;;;;;2.85;0.60;;;19.70;70.60;;;;;;5075811;28;20040;-60
2022/09/19 05:55:59;;;;;;;3.65;0.88;;;19.70;70.60;;;;;;5057396;28;20049;-60
2022/09/19 05:58:25;;;;;;;6.85;0.65;;;19.70;70.70;;;;;;5074771;28;20037;-60
2022/09/19 06:00:51;;;;;;;4.93;0.63;;;19.80;70.70;;;;;;5074208;28;20075;-60
2022/09/19 06:03:21;;;;;;;9.93;1.33;;;19.80;70.70;;;;;;5075053;28;20522;-60
2022/09/19 06:05:48;;;;;;;5.57;0.70;;;19.80;70.80;;;;;;5075344;28;20045;-60
2022/09/19 06:08:15;;;;;;;5.90;0.63;;;19.90;70.70;;;;;;5074168;28;20166;-60
2022/09/19 06:10:41;;;;;;;4.57;0.77;;;19.90;70.70;;;;;;5075241;28;20047;-60
2022/09/19 06:13:14;;;;;;;3.25;0.65;;;19.90;70.70;;;;;;5074715;28;20131;-60
2022/09/19 06:15:39;;;;;;;6.88;0.95;;;19.90;70.70;;;;;;5057086;28;20040;-60
2022/09/19 06:18:11;;;;;;;3.88;1.08;;;19.90;70.70;;;;;;5074723;28;20045;-60
2022/09/19 06:20:40;;;;;;;2.55;0.50;;;19.90;70.70;;;;;;5075017;28;20044;-60
2022/09/19 06:23:07;;;;;;;4.80;0.82;;;19.90;70.60;;;;;;5074118;28;20059;-60
2022/09/19 06:25:33;;;;;;;3.72;0.80;;;19.90;70.60;;;;;;5048087;28;20037;-60
2022/09/19 06:28:02;;;;;;;4.82;0.85;;;20.00;70.80;;;;;;5058394;28;20040;-60
2022/09/19 06:30:28;;;;;;;4.00;0.60;;;20.00;70.80;;;;;;5053878;28;20472;-61
2022/09/19 06:33:00;;;;;;;5.15;0.68;;;20.00;70.90;;;;;;5054387;28;20416;-60
2022/09/19 06:35:28;;;;;;;5.97;0.90;;;20.00;70.90;;;;;;5053881;28;20762;-60
2022/09/19 06:38:01;;;;;;;9.25;0.90;;;20.10;71.00;;;;;;5054415;28;20558;-60
2022/09/19 06:40:27;;;;;;;4.63;0.57;;;20.10;71.10;;;;;;5054788;28;20057;-60
2022/09/19 06:43:01;;;;;;;3.33;0.63;;;20.10;71.10;;;;;;5053885;28;20395;-61
2022/09/19 06:45:40;;;;;;;4.88;0.60;;;20.10;71.10;;;;;;5053789;28;20052;-60
2022/09/19 06:48:06;;;;;;;6.30;0.82;;;20.20;71.10;;;;;;5053706;28;20072;-60
2022/09/19 06:50:38;;;;;;;4.72;0.60;;;20.20;71.10;;;;;;5035630;28;20049;-61
2022/09/19 06:53:04;;;;;;;4.20;0.57;;;20.20;71.10;;;;;;5054417;28;20084;-60
2022/09/19 06:55:29;;;;;;;3.85;0.60;;;20.20;71.10;;;;;;5054174;28;20068;-60
2022/09/19 06:57:58;;;;;;;4.97;0.90;;;20.30;71.10;;;;;;5053286;28;20095;-60
2022/09/19 07:00:24;;;;;;;3.65;0.52;;;20.30;71.10;;;;;;5038091;28;20041;-59
2022/09/19 07:02:59;;;;;;;4.50;0.70;;;20.30;71.00;;;;;;5045760;28;20128;-60
2022/09/19 07:05:26;;;;;;;4.50;0.90;;;20.30;70.90;;;;;;5046369;28;20032;-58
2022/09/19 07:07:52;;;;;;;5.88;0.95;;;20.30;70.80;;;;;;5063880;28;20037;-60
2022/09/19 07:10:21;;;;;;;4.45;0.75;;;20.30;70.70;;;;;;5072862;28;20049;-60
2022/09/19 07:12:51;;;;;;;4.65;0.70;;;20.40;70.80;;;;;;5073371;28;20047;-59
2022/09/19 07:15:17;;;;;;;3.70;0.60;;;20.40;70.80;;;;;;5073645;28;20083;-60
2022/09/19 07:17:43;;;;;;;7.60;1.00;;;20.40;70.90;;;;;;5073141;28;20052;-60
2022/09/19 07:20:08;;;;;;;3.40;0.60;;;20.40;70.90;;;;;;5073484;28;20044;-60
2022/09/19 07:22:37;;;;;;;6.00;0.65;;;20.40;70.90;;;;;;5073713;28;20036;-60
2022/09/19 07:25:03;;;;;;;3.35;0.70;;;20.40;71.00;;;;;;5072997;28;20055;-60
2022/09/19 07:27:28;;;;;;;3.90;0.75;;;20.50;70.90;;;;;;5072961;28;20037;-61
2022/09/19 07:29:54;;;;;;;3.70;0.50;;;20.50;71.00;;;;;;5072267;28;20553;-61
2022/09/19 07:32:19;;;;;;;3.67;0.80;;;20.50;70.90;;;;;;5072240;28;20056;-60
2022/09/19 07:34:45;;;;;;;5.53;0.65;;;20.50;70.90;;;;;;5073692;28;20059;-59
2022/09/19 07:37:11;;;;;;;2.10;0.45;;;20.50;70.80;;;;;;5073254;28;20045;-59
2022/09/19 07:39:37;;;;;;;6.22;0.82;;;20.60;70.80;;;;;;5072697;28;20048;-59
2022/09/19 07:42:02;;;;;;;6.65;0.70;;;20.60;70.80;;;;;;5069217;28;20047;-58
2022/09/19 07:44:28;;;;;;;4.50;0.60;;;20.60;70.70;;;;;;5059345;28;20393;-59
2022/09/19 07:49:38;;;;;;;5.35;0.90;;;20.60;70.70;;;;;;5064065;28;20049;-59
2022/09/19 07:52:03;;;;;;;4.05;0.60;;;20.60;70.70;;;;;;5058611;28;20044;-59
2022/09/19 07:54:29;;;;;;;3.17;0.60;;;20.70;70.70;;;;;;5070982;28;20059;-59
2022/09/19 07:56:54;;;;;;;5.78;0.70;;;20.60;70.60;;;;;;5072193;28;20044;-59
2022/09/19 07:59:20;;;;;;;3.42;1.02;;;20.70;70.70;;;;;;5062334;28;20079;-60
2022/09/19 08:01:46;;;;;;;3.35;0.50;;;20.60;70.60;;;;;;5060532;28;20037;-61
2022/09/19 08:04:21;;;;;;;3.65;0.73;;;20.70;70.70;;;;;;5054670;28;20519;-60
2022/09/19 08:06:47;;;;;;;5.68;0.70;;;20.70;70.60;;;;;;5036843;28;20056;-61
2022/09/19 08:09:12;;;;;;;4.78;0.80;;;20.70;70.60;;;;;;5057099;28;20049;-59
2022/09/19 08:11:38;;;;;;;5.55;0.75;;;20.70;70.50;;;;;;5059540;28;20033;-59
2022/09/19 08:14:03;;;;;;;3.45;0.60;;;20.70;70.60;;;;;;5051042;28;20461;-59
2022/09/19 08:16:29;;;;;;;5.43;0.70;;;20.70;70.60;;;;;;5051731;28;20044;-59
2022/09/19 08:18:54;;;;;;;4.75;0.60;;;20.70;70.60;;;;;;5052332;28;20045;-59
2022/09/19 08:21:20;;;;;;;7.68;0.70;;;20.70;70.60;;;;;;5050865;28;20041;-60
2022/09/19 08:23:46;;;;;;;3.20;0.45;;;20.70;70.60;;;;;;5050408;28;20061;-59
2022/09/19 08:26:11;;;;;;;5.35;0.70;;;20.70;70.60;;;;;;5034412;28;20128;-60
2022/09/19 08:28:37;;;;;;;2.78;0.70;;;20.70;70.50;;;;;;5051391;28;20036;-60
2022/09/19 08:31:03;;;;;;;2.83;0.50;;;20.80;70.50;;;;;;5051664;28;20167;-60
2022/09/19 08:33:31;;;;;;;5.28;0.80;;;20.70;70.50;;;;;;5051928;28;20500;-58
2022/09/19 08:36:00;;;;;;;;;;;20.80;71.10;;;;;;5051779;28;20469;-59
2022/09/19 08:38:26;;;;;;;6.15;0.70;;;20.70;70.30;;;;;;5052297;28;19925;-61
2022/09/19 08:41:19;;;;;;;6.65;0.70;;;20.70;70.40;;;;;;5052351;28;20044;-60
2022/09/19 08:44:00;;;;;;;8.63;0.85;;;20.70;70.40;;;;;;5036768;28;20106;-60
2022/09/19 08:46:50;;;;;;;7.85;1.15;;;20.70;70.30;;;;;;5051673;28;20123;-60
2022/09/19 08:49:22;;;;;;;6.18;0.60;;;20.70;70.20;;;;;;5051243;28;20052;-60
2022/09/19 08:51:59;;;;;;;4.32;0.60;;;20.80;70.30;;;;;;5052286;28;20037;-61
2022/09/19 08:54:36;;;;;;;4.15;0.63;;;20.70;70.20;;;;;;5018522;28;20095;-60
2022/09/19 08:57:02;;;;;;;8.75;1.02;;;20.70;70.10;;;;;;5021922;28;20033;-60
2022/09/19 08:59:37;;;;;;;5.30;0.90;;;20.70;70.20;;;;;;5043652;28;20033;-60
2022/09/19 09:02:40;;;;;;;7.55;1.40;;;20.70;70.40;;;;;;5047971;28;20036;-59
2022/09/19 09:05:14;;;;;;;6.00;1.10;;;20.80;70.50;;;;;;5039479;28;20129;-60
2022/09/19 09:07:55;;;;;;;8.02;1.52;;;20.80;70.60;;;;;;5055397;28;20044;-59
2022/09/19 09:10:54;;;;;;;6.90;1.45;;;20.80;70.70;;;;;;5052998;28;20496;-59
2022/09/19 09:13:39;;;;;;;9.02;2.03;;;20.80;70.70;;;;;;5075389;28;20051;-60
2022/09/19 09:16:22;;;;;;;9.65;2.05;;;20.80;70.70;;;;;;5067326;28;20036;-59
2022/09/19 09:19:06;;;;;;;8.98;2.30;;;20.90;70.70;;;;;;5038379;28;20052;-61
2022/09/19 09:21:35;;;;;;;9.48;2.58;;;20.90;70.70;;;;;;5023149;28;20040;-60
2022/09/19 09:24:09;;;;;;;8.35;2.25;;;20.90;70.70;;;;;;5055135;28;20448;-60
2022/09/19 09:26:38;;;;;;;12.82;2.20;;;20.90;70.70;;;;;;5022568;28;20048;-60
2022/09/19 09:29:25;;;;;;;9.52;2.35;;;20.90;70.60;;;;;;5022295;28;20481;-59
2022/09/19 09:31:54;;;;;;;10.10;2.30;;;20.90;70.60;;;;;;5059270;28;20112;-60
2022/09/19 09:34:26;;;;;;;10.07;1.95;;;20.90;70.50;;;;;;5054938;28;20060;-60
2022/09/19 09:37:18;;;;;;;9.68;2.28;;;21.00;70.60;;;;;;5051755;28;20037;-60
2022/09/19 09:40:08;;;;;;;10.48;2.40;;;21.00;70.60;;;;;;5050364;28;20132;-60
2022/09/19 09:42:52;;;;;;;11.13;1.95;;;21.00;70.60;;;;;;5046920;28;20392;-60
2022/09/19 09:45:29;;;;;;;7.95;1.98;;;21.00;70.50;;;;;;5073516;28;20113;-60
2022/09/19 09:48:09;;;;;;;7.07;1.60;;;21.00;70.40;;;;;;5025687;28;20120;-60
2022/09/19 09:51:03;;;;;;;7.18;1.67;;;21.00;70.40;;;;;;5040438;28;20307;-60
2022/09/19 09:53:50;;;;;;;8.00;2.05;;;21.00;70.40;;;;;;5056896;28;20733;-60
2022/09/19 09:56:24;;;;;;;7.22;1.88;;;21.00;70.30;;;;;;5074421;28;20051;-60
2022/09/19 09:58:56;;;;;;;10.10;2.22;;;21.00;70.30;;;;;;5057110;28;20040;-60
2022/09/19 10:04:36;;;;;;;10.52;2.40;;;21.00;70.20;;;;;;5030534;28;20081;-59
2022/09/19 10:07:13;;;;;;;8.93;1.98;;;21.10;70.30;;;;;;5038964;28;20041;-59
2022/09/19 10:09:48;;;;;;;5.78;1.60;;;21.10;70.30;;;;;;5057846;28;20084;-60
2022/09/19 10:12:55;;;;;;;10.20;1.80;;;21.10;70.20;;;;;;5032410;28;20489;-60
2022/09/19 10:15:21;;;;;;;8.48;1.90;;;21.10;70.00;;;;;;5004211;28;20063;-60
2022/09/19 10:17:49;;;;;;;7.28;1.80;;;21.10;70.00;;;;;;5028255;28;20048;-60
2022/09/19 10:20:22;;;;;;;12.77;2.03;;;21.10;69.70;;;;;;5024836;28;20055;-60
2022/09/19 10:22:48;;;;;;;9.93;2.00;;;21.10;69.60;;;;;;5041283;28;20089;-60
2022/09/19 10:25:14;;;;;;;8.32;1.98;;;21.10;69.50;;;;;;5049621;28;20049;-60
2022/09/19 10:27:43;;;;;;;8.80;1.60;;;21.10;69.40;;;;;;5040935;28;20048;-60
2022/09/19 10:30:26;;;;;;;8.88;1.70;;;21.10;69.40;;;;;;5058389;28;20037;-60
2022/09/19 10:32:52;;;;;;;10.82;1.70;;;21.10;69.20;;;;;;5057883;28;20075;-60
2022/09/19 10:35:26;;;;;;;7.72;1.67;;;21.10;69.20;;;;;;5053692;28;20052;-60
2022/09/19 10:38:11;;;;;;;8.20;1.80;;;21.10;69.10;;;;;;5053129;28;20132;-60
2022/09/19 10:40:40;;;;;;;8.32;1.52;;;21.10;69.10;;;;;;5055985;28;20479;-60
2022/09/19 10:43:09;;;;;;;5.55;1.63;;;21.10;69.10;;;;;;5036135;28;20049;-60
2022/09/19 10:45:36;;;;;;;7.43;2.15;;;21.10;69.20;;;;;;5027399;28;20053;-58
2022/09/19 10:48:10;;;;;;;7.25;1.40;;;21.10;69.20;;;;;;5060156;28;20037;-58
2022/09/19 10:50:41;;;;;;;6.70;1.27;;;21.10;69.10;;;;;;5057957;28;20033;-59
2022/09/19 10:53:22;;;;;;;7.90;1.55;;;21.10;69.10;;;;;;5041917;28;20409;-59
2022/09/19 10:55:48;;;;;;;5.32;1.33;;;21.10;69.10;;;;;;5043997;28;20037;-59
2022/09/19 10:58:17;;;;;;;6.35;1.30;;;21.10;69.00;;;;;;5053051;28;20048;-58
2022/09/19 11:00:49;;;;;;;6.53;1.45;;;21.10;69.00;;;;;;5043041;28;20033;-59
2022/09/19 11:03:23;;;;;;;5.63;0.95;;;21.20;68.90;;;;;;5056849;28;20087;-59
2022/09/19 11:06:15;;;;;;;8.05;1.40;;;21.10;68.80;;;;;;5061525;28;20032;-58
2022/09/19 11:08:47;;;;;;;6.03;1.30;;;21.10;68.80;;;;;;5069390;28;20060;-58
2022/09/19 11:11:26;;;;;;;6.70;1.20;;;21.10;68.80;;;;;;5072507;28;20056;-60
2022/09/19 11:14:21;;;;;;;5.28;0.95;;;21.10;68.60;;;;;;5073646;28;20047;-59
2022/09/19 11:17:05;;;;;;;6.22;1.10;;;21.10;68.50;;;;;;5036675;28;20130;-59
2022/09/19 11:19:48;;;;;;;8.27;1.42;;;21.10;68.60;;;;;;5073581;28;20061;-59
2022/09/19 11:22:26;;;;;;;7.43;1.00;;;21.00;68.60;;;;;;5056592;28;20129;-59
2022/09/19 11:25:04;;;;;;;;;;;21.00;68.70;;;;;;5039544;28;20168;-59
2022/09/19 11:27:43;;;;;;;6.38;1.33;;;21.00;68.70;;;;;;5073038;28;20392;-59
2022/09/19 11:30:18;;;;;;;8.88;1.15;;;21.00;68.80;;;;;;5054597;28;20614;-59
2022/09/19 11:32:57;;;;;;;7.15;1.30;;;21.00;68.70;;;;;;5054755;28;20059;-59
2022/09/19 11:35:28;;;;;;;6.97;1.23;;;21.00;68.70;;;;;;5055694;28;20053;-59
2022/09/19 11:37:57;;;;;;;5.70;1.00;;;21.00;68.60;;;;;;5072390;28;20040;-59
2022/09/19 11:40:52;;;;;;;5.13;0.80;;;21.00;68.60;;;;;;5054926;28;20513;-59
2022/09/19 11:43:29;;;;;;;6.13;1.35;;;21.00;68.50;;;;;;5072884;28;20052;-59
2022/09/19 11:46:09;;;;;;;3.83;0.80;;;21.00;68.50;;;;;;5072017;28;20177;-59
2022/09/19 11:48:54;;;;;;;6.10;1.15;;;21.00;68.50;;;;;;5073128;28;20044;-59
2022/09/19 11:51:49;;;;;;;5.95;1.30;;;21.00;68.40;;;;;;5072369;28;20136;-59
2022/09/19 11:54:44;;;;;;;5.20;1.13;;;21.00;68.40;;;;;;5072515;28;20063;-59
2022/09/19 11:57:38;;;;;;;6.47;1.30;;;21.10;68.50;;;;;;5072589;28;20048;-59
2022/09/19 12:00:33;;;;;;;3.00;0.75;;;21.00;68.40;;;;;;5071440;28;20055;-59
2022/09/19 12:03:16;;;;;;;3.67;1.20;;;21.10;68.40;;;;;;5072886;28;20057;-58
2022/09/19 12:05:57;;;;;;;4.25;0.90;;;21.10;68.30;;;;;;5054384;28;20051;-59
2022/09/19 12:08:42;;;;;;;4.78;0.60;;;21.10;68.20;;;;;;5072340;28;20056;-60
2022/09/19 12:11:12;;;;;;;4.80;1.17;;;21.10;68.20;;;;;;5057038;28;20084;-60
2022/09/19 12:13:59;;;;;;;7.43;0.98;;;21.10;68.20;;;;;;5054183;28;20047;-60
2022/09/19 12:16:29;;;;;;;4.78;0.80;;;21.10;68.20;;;;;;5038742;28;20510;-60
2022/09/19 12:18:59;;;;;;;5.18;1.25;;;21.10;68.20;;;;;;5055147;28;20051;-60
2022/09/19 12:21:29;;;;;;;4.05;1.00;;;21.10;68.10;;;;;;5036926;28;20514;-60
2022/09/19 12:27:08;;;;;;;6.35;1.30;;;21.20;68.00;;;;;;5056668;28;20040;-60
2022/09/19 12:29:36;;;;;;;6.03;1.15;;;21.10;67.70;;;;;;5054340;28;20128;-60
2022/09/19 12:32:14;;;;;;;5.95;1.10;;;21.10;68.40;;;;;;5054179;28;20052;-60
2022/09/19 12:35:06;;;;;;;5.35;1.13;;;21.10;67.70;;;;;;5071780;28;20044;-60
2022/09/19 12:37:54;;;;;;;4.75;0.90;;;21.10;67.60;;;;;;5040421;28;20075;-60
2022/09/19 12:40:28;;;;;;;;;;;21.10;67.60;;;;;;5054629;28;20043;-60
2022/09/19 12:42:58;;;;;;;2.63;0.57;;;21.00;67.60;;;;;;5054441;28;19943;-60
2022/09/19 12:45:36;;;;;;;3.03;0.82;;;21.00;67.70;;;;;;5053603;28;20503;-60
2022/09/19 12:48:22;;;;;;;5.28;0.77;;;21.00;67.70;;;;;;5037481;28;20370;-60
2022/09/19 12:50:50;;;;;;;6.25;1.00;;;21.00;67.60;;;;;;5072271;28;20058;-60
2022/09/19 12:53:27;;;;;;;6.28;0.73;;;21.00;67.60;;;;;;5071850;28;20488;-60
2022/09/19 12:56:13;;;;;;;4.37;0.90;;;21.00;67.50;;;;;;5053636;28;20068;-60
2022/09/19 12:59:06;;;;;;;3.90;0.82;;;21.00;67.50;;;;;;5071579;28;20786;-60
2022/09/19 13:01:40;;;;;;;5.05;0.80;;;21.00;67.30;;;;;;5053584;28;20091;-58
2022/09/19 13:04:30;;;;;;;3.38;0.80;;;21.00;67.90;;;;;;5070674;28;20056;-58
2022/09/19 13:07:09;;;;;;;5.15;1.00;;;21.00;67.20;;;;;;5072069;28;20058;-59
2022/09/19 13:09:46;;;;;;;4.53;0.88;;;21.00;67.30;;;;;;5040030;28;20062;-59
2022/09/19 13:12:15;;;;;;;4.72;1.10;;;21.00;67.20;;;;;;5054630;28;20041;-59
2022/09/19 13:14:56;;;;;;;4.38;0.73;;;21.00;67.30;;;;;;5020966;28;20162;-60
2022/09/19 13:25:48;;;;;;;2.85;0.70;;;21.10;67.30;;;;;;5042462;28;20045;-59
2022/09/19 13:28:19;;;;;;;3.17;0.70;;;21.10;67.20;;;;;;5053851;28;20056;-60
2022/09/19 13:31:11;;;;;;;2.95;0.60;;;21.20;67.20;;;;;;5070441;28;20438;-59
2022/09/19 13:33:49;;;;;;;3.92;0.75;;;21.20;67.20;;;;;;5054522;28;20070;-59
2022/09/19 13:36:17;;;;;;;6.40;0.90;;;21.20;67.10;;;;;;5053625;28;20098;-59
2022/09/19 13:38:43;;;;;;;4.78;0.70;;;21.30;67.00;;;;;;5053398;28;20053;-59